Huvudsida
METAR-TAF:

METAR-TAF

Flygplatser :

Lydd Airport

Lydd, England

latitud: 50-57N, longitud: 000-56E, höjd: 3 m

Aktuellt väderrapport

Denna rapport gjordes för 16 minuter sedan, klockan 23:20 UTC
Vind 9 kt från nord/nordost
Temperatur 12°C
Fuktighet 94%
Tryck 1036 hPa
Sikt 10 km eller mer

METAR: EGMD 272320Z AUTO 02009KT 9999 BKN040/// 12/11 Q1036

Tid: 00:36 (23:36 UTC)

Väderprognos

Denna rapport gjordes för 3 timmar och 44 minuter sedan, klockan 19:52 UTC
Prognos gäller från 27 kl. 21 UTC till 28 kl. 06 UTC
Vind 9 kt från nordost
Sikt 10 km eller mer
Få moln på en höjd av 4000 ft

TAF: EGMD 271952Z 2721/2806 05009KT 9999 FEW040

Aktuella väderrapporter och prognoser från 4000 flygplatser (METAR- och TAF-rapporter).

De tillgängliga stationerna syns som gula och röda prickar på kartan.

För musen över prickarna för att se namnen på stationerna.

Klicka sedan för att få väderrapporter och prognoser.

För att ändra kartan: Klicka på de gröna knapparna med ett svart kors på för att zooma in; den gröna knappen med ett streck på för att zooma ut; eller på de gröna pilarna för angränsande kartor.


METAR-TAF: